Camden, Michigan
Current Conditions -  °F | °C
As of 11:35 AM on Friday 19 Dec 2014 (Local Time) from KJYM Reporting Station
Overcast Overcast  
Wind Chill: 29°   Ceiling: 1400
Heat Index: 29°   Visibility: 10mi
Dew Point: 26°   Wind: 0mph
Humidity: 87%   Direction: NA
Pressure: 30.24"   Gusts: NA
Location:  41.75°N, 84.76°W
Report Text: KJYM 191635Z AUTO 00000KT 10SM OVC014 M02/M04 A3024 RMK AO2 T10171036
Loading
Personal Weather Stations






























Interactive Weather Map New forecast layout! Learn more

10-Day Weather Forecast

Advertisements
Track Severe Weather on mobile